Time;durP1;ratioP1;P1;durP2;ratioP2;P2;SDS_P1;SDS_P2;PMS_P1;PMS_P2;Temp;Humidity;BMP_temperature;BMP_pressure;BME280_temperature;BME280_humidity;BME280_pressure;Samples;Min_cycle;Max_cycle;Signal;HPM_P1;HPM_P2
2022/12/01 00:00:15;;;;;;;;;55.50;38.00;;;;;;;;5104679;27;61830;-83
2022/12/01 00:02:41;;;;;;;;;35.75;30.75;;;;;;;;5102683;27;63449;-83
2022/12/01 00:05:06;;;;;;;;;49.25;34.75;;;;;;;;5103499;27;61868;-83
2022/12/01 00:07:31;;;;;;;;;39.75;34.50;;;;;;;;5103064;27;61820;-83
2022/12/01 00:12:42;;;;;;;;;48.75;35.00;;;;;;;;5104342;27;61768;-83
2022/12/01 00:15:10;;;;;;;;;44.50;31.00;;;;;;;;5102985;27;61936;-83
2022/12/01 00:17:36;;;;;;;;;45.50;33.25;;;;;;;;5104898;27;61730;-84
2022/12/01 00:20:02;;;;;;;;;41.75;27.50;;;;;;;;5104205;27;61996;-83
2022/12/01 00:22:28;;;;;;;;;48.50;35.00;;;;;;;;5103488;27;62857;-83
2022/12/01 00:24:53;;;;;;;;;36.75;30.25;;;;;;;;5104829;27;61749;-83
2022/12/01 00:27:18;;;;;;;;;35.75;31.00;;;;;;;;5102269;27;61722;-83
2022/12/01 00:29:44;;;;;;;;;41.50;31.00;;;;;;;;5102956;27;61868;-83
2022/12/01 00:32:09;;;;;;;;;39.50;28.00;;;;;;;;5102724;27;63465;-84
2022/12/01 00:34:36;;;;;;;;;43.25;30.75;;;;;;;;5104665;27;62294;-83
2022/12/01 00:37:02;;;;;;;;;45.25;34.50;;;;;;;;5104450;27;61739;-83
2022/12/01 00:39:27;;;;;;;;;36.25;32.00;;;;;;;;5103170;27;62289;-83
2022/12/01 00:41:52;;;;;;;;;49.75;36.25;;;;;;;;5102551;27;61822;-84
2022/12/01 00:44:17;;;;;;;;;39.00;33.00;;;;;;;;5102803;27;62000;-83
2022/12/01 00:46:43;;;;;;;;;43.25;30.00;;;;;;;;5104410;27;61881;-83
2022/12/01 00:49:11;;;;;;;;;46.50;35.75;;;;;;;;5104339;27;61809;-82
2022/12/01 00:51:36;;;;;;;;;34.50;26.50;;;;;;;;5102275;27;61838;-83
2022/12/01 00:54:01;;;;;;;;;49.25;36.75;;;;;;;;5104085;27;61956;-83
2022/12/01 00:56:26;;;;;;;;;45.25;32.25;;;;;;;;5104299;27;61750;-83
2022/12/01 00:58:52;;;;;;;;;47.25;30.25;;;;;;;;5104460;27;61684;-83
2022/12/01 01:01:17;;;;;;;;;56.25;38.75;;;;;;;;5103433;27;62247;-83
2022/12/01 01:03:42;;;;;;;;;43.25;29.75;;;;;;;;5104163;27;61969;-83
2022/12/01 01:06:10;;;;;;;;;39.00;36.75;;;;;;;;5102450;27;61811;-83
2022/12/01 01:08:35;;;;;;;;;59.25;37.25;;;;;;;;5102581;27;61777;-83
2022/12/01 01:11:01;;;;;;;;;53.50;36.75;;;;;;;;5103597;27;62566;-83
2022/12/01 01:13:27;;;;;;;;;45.50;35.50;;;;;;;;5103721;27;61886;-83
2022/12/01 01:16:00;;;;;;;;;36.00;31.25;;;;;;;;5103861;27;61819;-83
2022/12/01 01:18:25;;;;;;;;;48.75;34.25;;;;;;;;5104292;27;62319;-83
2022/12/01 01:20:55;;;;;;;;;47.50;29.75;;;;;;;;5100982;27;61898;-84
2022/12/01 01:23:20;;;;;;;;;49.50;33.50;;;;;;;;5103662;27;61955;-83
2022/12/01 01:25:45;;;;;;;;;37.75;31.25;;;;;;;;5102425;27;61722;-83
2022/12/01 01:28:11;;;;;;;;;49.25;36.25;;;;;;;;5104044;27;61874;-82
2022/12/01 01:30:38;;;;;;;;;45.25;29.75;;;;;;;;5101005;27;63378;-84
2022/12/01 01:33:03;;;;;;;;;35.25;30.75;;;;;;;;5104189;27;61688;-83
2022/12/01 01:35:28;;;;;;;;;37.00;27.50;;;;;;;;5103384;27;62025;-83
2022/12/01 01:37:54;;;;;;;;;39.50;27.25;;;;;;;;5103652;27;61781;-83
2022/12/01 01:40:19;;;;;;;;;55.00;33.50;;;;;;;;5103198;27;61768;-83
2022/12/01 01:42:44;;;;;;;;;35.00;26.00;;;;;;;;5101923;27;62051;-83
2022/12/01 01:45:18;;;;;;;;;44.75;33.00;;;;;;;;5101664;27;61988;-83
2022/12/01 01:47:44;;;;;;;;;41.75;30.50;;;;;;;;5103551;27;61855;-84
2022/12/01 01:50:11;;;;;;;;;38.00;33.00;;;;;;;;5100759;27;61864;-83
2022/12/01 01:52:57;;;;;;;;;35.50;26.00;;;;;;;;5101570;27;61800;-83
2022/12/01 01:55:22;;;;;;;;;36.25;31.75;;;;;;;;5103237;27;62006;-83
2022/12/01 01:57:48;;;;;;;;;36.75;31.25;;;;;;;;5102079;27;62176;-83
2022/12/01 02:00:15;;;;;;;;;44.50;32.00;;;;;;;;5102491;27;61781;-83
2022/12/01 02:02:44;;;;;;;;;21.00;19.75;;;;;;;;5102854;27;61970;-83
2022/12/01 02:05:19;;;;;;;;;25.00;21.75;;;;;;;;5101549;27;61990;-83
2022/12/01 02:07:46;;;;;;;;;34.75;25.50;;;;;;;;5102992;27;61767;-83
2022/12/01 02:10:13;;;;;;;;;39.75;31.50;;;;;;;;5101282;27;61937;-83
2022/12/01 02:12:49;;;;;;;;;43.00;35.75;;;;;;;;5103092;27;62019;-83
2022/12/01 02:15:30;;;;;;;;;38.50;27.75;;;;;;;;5102701;27;62019;-83
2022/12/01 02:18:11;;;;;;;;;31.25;19.75;;;;;;;;5102625;27;61801;-83
2022/12/01 02:20:39;;;;;;;;;41.75;31.50;;;;;;;;5101709;27;61726;-83
2022/12/01 02:23:34;;;;;;;;;29.75;22.75;;;;;;;;5101507;27;61801;-83
2022/12/01 02:26:25;;;;;;;;;35.00;24.50;;;;;;;;5097902;27;61805;-84
2022/12/01 02:28:50;;;;;;;;;39.00;25.25;;;;;;;;5098699;27;61674;-83
2022/12/01 02:31:16;;;;;;;;;37.75;30.00;;;;;;;;5100588;27;61895;-83
2022/12/01 02:33:46;;;;;;;;;27.75;21.25;;;;;;;;5102417;27;61830;-83
2022/12/01 02:36:19;;;;;;;;;34.50;27.25;;;;;;;;5101643;27;61738;-84
2022/12/01 02:38:55;;;;;;;;;36.25;27.75;;;;;;;;5101314;27;61962;-83
2022/12/01 02:41:24;;;;;;;;;40.75;26.75;;;;;;;;5100859;27;63101;-83
2022/12/01 02:43:58;;;;;;;;;32.25;24.75;;;;;;;;5102204;27;61871;-83
2022/12/01 02:46:23;;;;;;;;;46.75;33.00;;;;;;;;5102449;27;61866;-82
2022/12/01 02:48:52;;;;;;;;;50.75;34.00;;;;;;;;5100695;27;62040;-83
2022/12/01 02:51:29;;;;;;;;;30.75;27.75;;;;;;;;5105408;27;61830;-83
2022/12/01 02:53:55;;;;;;;;;37.50;27.00;;;;;;;;5106270;27;61899;-83
2022/12/01 02:56:22;;;;;;;;;35.25;25.50;;;;;;;;5106413;27;61830;-83
2022/12/01 02:58:47;;;;;;;;;36.50;30.00;;;;;;;;5106110;27;62287;-83
2022/12/01 03:01:31;;;;;;;;;40.25;24.00;;;;;;;;5105171;27;63098;-83
2022/12/01 03:04:14;;;;;;;;;35.25;26.25;;;;;;;;5105967;27;62242;-83
2022/12/01 03:07:06;;;;;;;;;36.50;31.25;;;;;;;;5104772;27;61904;-83
2022/12/01 03:09:47;;;;;;;;;40.75;33.25;;;;;;;;5104858;27;61882;-83
2022/12/01 03:12:18;;;;;;;;;37.00;25.25;;;;;;;;5105074;27;61774;-83
2022/12/01 03:15:06;;;;;;;;;31.25;28.00;;;;;;;;5105559;27;61991;-83
2022/12/01 03:18:01;;;;;;;;;31.50;26.50;;;;;;;;5104164;27;61802;-83
2022/12/01 03:20:32;;;;;;;;;39.75;36.00;;;;;;;;5100145;27;61779;-83
2022/12/01 03:23:02;;;;;;;;;33.00;27.75;;;;;;;;5104758;27;61939;-84
2022/12/01 03:25:29;;;;;;;;;33.75;25.25;;;;;;;;5105646;27;61777;-83
2022/12/01 03:27:55;;;;;;;;;30.00;24.50;;;;;;;;5104288;27;62061;-84
2022/12/01 03:30:24;;;;;;;;;32.50;28.75;;;;;;;;5105120;27;61976;-83
2022/12/01 03:32:53;;;;;;;;;42.50;31.50;;;;;;;;5105069;27;61978;-83
2022/12/01 03:35:22;;;;;;;;;39.50;30.00;;;;;;;;5105334;27;61887;-83
2022/12/01 03:38:04;;;;;;;;;41.00;30.50;;;;;;;;5105353;27;62067;-83
2022/12/01 03:40:31;;;;;;;;;31.50;28.25;;;;;;;;5105567;27;61846;-83
2022/12/01 03:42:59;;;;;;;;;44.75;31.50;;;;;;;;5104811;27;61973;-83
2022/12/01 03:45:32;;;;;;;;;38.50;31.25;;;;;;;;5104797;27;61726;-83
2022/12/01 03:47:58;;;;;;;;;30.50;25.00;;;;;;;;5103897;27;61868;-83
2022/12/01 03:50:28;;;;;;;;;41.75;26.75;;;;;;;;5105281;27;61878;-83
2022/12/01 03:53:10;;;;;;;;;37.75;32.75;;;;;;;;5103349;27;63198;-83
2022/12/01 03:55:39;;;;;;;;;37.75;30.50;;;;;;;;5103969;27;61842;-83
2022/12/01 03:58:17;;;;;;;;;38.75;24.75;;;;;;;;5105407;27;61965;-83
2022/12/01 04:00:43;;;;;;;;;36.75;28.75;;;;;;;;5102488;27;61925;-83
2022/12/01 04:03:15;;;;;;;;;40.75;34.75;;;;;;;;5104044;27;61831;-83
2022/12/01 04:05:40;;;;;;;;;31.00;25.50;;;;;;;;5103741;27;62016;-83
2022/12/01 04:08:05;;;;;;;;;47.25;30.00;;;;;;;;5104815;27;61961;-84
2022/12/01 04:10:31;;;;;;;;;37.50;21.75;;;;;;;;5105206;27;61774;-83
2022/12/01 04:12:58;;;;;;;;;34.25;29.75;;;;;;;;5103186;27;63586;-83
2022/12/01 04:15:24;;;;;;;;;35.00;25.50;;;;;;;;5102668;27;61932;-83
2022/12/01 04:17:49;;;;;;;;;38.25;25.50;;;;;;;;5105007;27;61782;-83
2022/12/01 04:20:16;;;;;;;;;38.75;28.75;;;;;;;;5102915;27;61971;-83
2022/12/01 04:22:41;;;;;;;;;37.25;26.50;;;;;;;;5102774;27;63726;-83
2022/12/01 04:25:07;;;;;;;;;55.50;33.50;;;;;;;;5103496;27;61762;-83
2022/12/01 04:27:32;;;;;;;;;46.25;31.50;;;;;;;;5104647;27;61742;-83
2022/12/01 04:29:58;;;;;;;;;35.00;26.00;;;;;;;;5104262;27;61986;-83
2022/12/01 04:32:23;;;;;;;;;44.50;37.25;;;;;;;;5102375;27;62596;-83
2022/12/01 04:34:48;;;;;;;;;38.75;28.50;;;;;;;;5103423;27;61856;-83
2022/12/01 04:37:14;;;;;;;;;35.25;25.75;;;;;;;;5104617;27;61731;-83
2022/12/01 04:39:40;;;;;;;;;45.75;33.25;;;;;;;;5104985;27;61765;-83
2022/12/01 04:42:06;;;;;;;;;40.25;31.00;;;;;;;;5104061;27;61822;-83
2022/12/01 04:44:31;;;;;;;;;41.75;29.50;;;;;;;;5102093;27;61995;-83
2022/12/01 04:46:56;;;;;;;;;41.25;35.75;;;;;;;;5103064;27;62003;-83
2022/12/01 04:49:22;;;;;;;;;33.50;24.00;;;;;;;;5102312;27;62204;-83
2022/12/01 04:51:47;;;;;;;;;36.00;26.25;;;;;;;;5102199;27;63409;-84
2022/12/01 04:54:13;;;;;;;;;40.25;28.25;;;;;;;;5102941;27;61746;-83
2022/12/01 04:56:38;;;;;;;;;47.50;29.50;;;;;;;;5104263;27;62517;-83
2022/12/01 04:59:04;;;;;;;;;32.25;25.00;;;;;;;;5103961;27;61688;-83
2022/12/01 05:01:29;;;;;;;;;34.75;25.50;;;;;;;;5102092;27;61870;-83
2022/12/01 05:03:54;;;;;;;;;40.25;28.00;;;;;;;;5104143;27;61946;-83
2022/12/01 05:06:21;;;;;;;;;25.00;19.25;;;;;;;;5104054;27;61778;-83
2022/12/01 05:08:47;;;;;;;;;47.00;30.75;;;;;;;;5102900;27;62210;-83
2022/12/01 05:11:17;;;;;;;;;36.25;26.75;;;;;;;;5102110;27;62257;-83
2022/12/01 05:13:47;;;;;;;;;42.00;24.50;;;;;;;;5101262;27;61798;-83
2022/12/01 05:16:18;;;;;;;;;37.25;27.25;;;;;;;;5104493;27;61767;-83
2022/12/01 05:20:55;;;;;;;;;31.25;28.75;;;;;;;;5102233;27;61751;-83
2022/12/01 05:21:36;;;;;;;;;45.25;28.00;;;;;;;;5103049;27;62040;-83
2022/12/01 05:24:01;;;;;;;;;39.00;32.75;;;;;;;;5102360;27;61762;-83
2022/12/01 05:26:27;;;;;;;;;53.75;33.25;;;;;;;;5103566;27;61711;-83
2022/12/01 05:28:52;;;;;;;;;39.75;33.00;;;;;;;;5103663;27;61610;-83
2022/12/01 05:31:17;;;;;;;;;40.00;28.75;;;;;;;;5101469;27;63178;-83
2022/12/01 05:33:42;;;;;;;;;46.00;33.50;;;;;;;;5103681;27;61910;-83
2022/12/01 05:36:08;;;;;;;;;42.25;32.50;;;;;;;;5102277;27;61874;-83
2022/12/01 05:38:33;;;;;;;;;33.25;25.50;;;;;;;;5103939;27;61924;-83
2022/12/01 05:40:58;;;;;;;;;43.50;33.75;;;;;;;;5100938;27;62131;-83
2022/12/01 05:43:24;;;;;;;;;46.00;30.25;;;;;;;;5103922;27;61935;-83
2022/12/01 05:45:49;;;;;;;;;38.00;31.25;;;;;;;;5101749;27;62174;-83
2022/12/01 05:48:14;;;;;;;;;37.25;31.25;;;;;;;;5104112;27;61940;-83
2022/12/01 05:50:40;;;;;;;;;40.00;28.75;;;;;;;;5101116;27;64224;-83
2022/12/01 05:53:05;;;;;;;;;44.00;29.25;;;;;;;;5103375;27;62372;-83
2022/12/01 05:55:34;;;;;;;;;37.25;26.50;;;;;;;;5103272;27;61751;-83
2022/12/01 05:57:59;;;;;;;;;38.25;33.00;;;;;;;;5102257;27;62378;-84
2022/12/01 06:00:25;;;;;;;;;45.75;28.25;;;;;;;;5100894;27;64035;-83
2022/12/01 06:02:50;;;;;;;;;38.00;31.25;;;;;;;;5103411;27;61868;-83
2022/12/01 06:05:15;;;;;;;;;39.25;24.75;;;;;;;;5103200;27;61730;-79
2022/12/01 06:07:41;;;;;;;;;23.75;20.75;;;;;;;;5103454;27;62072;-79
2022/12/01 06:10:08;;;;;;;;;36.50;29.25;;;;;;;;5102145;27;62954;-81
2022/12/01 06:12:33;;;;;;;;;32.50;27.25;;;;;;;;5102963;27;61849;-81
2022/12/01 06:14:59;;;;;;;;;35.25;28.25;;;;;;;;5101246;27;61927;-80
2022/12/01 06:17:24;;;;;;;;;30.75;26.00;;;;;;;;5103206;27;61752;-80
2022/12/01 06:19:49;;;;;;;;;40.00;30.50;;;;;;;;5102212;27;61966;-79
2022/12/01 06:22:14;;;;;;;;;42.00;30.25;;;;;;;;5103242;27;62153;-86
2022/12/01 06:24:40;;;;;;;;;33.25;25.00;;;;;;;;5106357;27;61762;-81
2022/12/01 06:27:05;;;;;;;;;33.25;25.50;;;;;;;;5103269;27;61988;-79
2022/12/01 06:29:30;;;;;;;;;39.00;29.00;;;;;;;;5102078;27;61756;-83
2022/12/01 06:31:56;;;;;;;;;43.50;31.00;;;;;;;;5102644;27;62113;-82
2022/12/01 06:34:21;;;;;;;;;42.25;25.00;;;;;;;;5103163;27;61933;-80
2022/12/01 06:36:46;;;;;;;;;35.00;25.00;;;;;;;;5101186;27;61856;-82
2022/12/01 06:39:14;;;;;;;;;46.25;25.00;;;;;;;;5101676;27;62052;-79
2022/12/01 06:41:39;;;;;;;;;37.25;31.50;;;;;;;;5101329;27;62104;-79
2022/12/01 06:44:04;;;;;;;;;26.00;17.00;;;;;;;;5101970;27;61877;-78
2022/12/01 06:46:30;;;;;;;;;39.75;29.25;;;;;;;;5100930;27;61973;-78
2022/12/01 06:48:55;;;;;;;;;31.00;21.00;;;;;;;;5099415;27;63902;-82
2022/12/01 06:51:20;;;;;;;;;32.00;26.25;;;;;;;;5102146;27;61648;-77
2022/12/01 06:53:46;;;;;;;;;30.75;28.00;;;;;;;;5101758;27;61870;-78
2022/12/01 06:56:11;;;;;;;;;36.75;29.50;;;;;;;;5102076;27;61955;-78
2022/12/01 06:58:36;;;;;;;;;30.75;29.25;;;;;;;;5099106;27;62168;-78
2022/12/01 07:01:08;;;;;;;;;36.25;26.25;;;;;;;;5100887;27;62130;-78
2022/12/01 07:03:34;;;;;;;;;43.50;33.50;;;;;;;;5099599;27;61907;-78
2022/12/01 07:06:00;;;;;;;;;37.50;26.25;;;;;;;;5101915;27;62126;-78
2022/12/01 07:08:26;;;;;;;;;49.75;29.75;;;;;;;;5100451;27;61953;-77
2022/12/01 07:11:06;;;;;;;;;45.75;28.75;;;;;;;;5100076;27;61833;-77
2022/12/01 07:13:31;;;;;;;;;44.00;29.50;;;;;;;;5101097;27;62103;-77
2022/12/01 07:15:57;;;;;;;;;37.00;26.25;;;;;;;;5101451;27;61929;-78
2022/12/01 07:18:22;;;;;;;;;40.50;30.50;;;;;;;;5102001;27;61903;-77
2022/12/01 07:20:47;;;;;;;;;32.00;24.50;;;;;;;;5101690;27;61993;-78
2022/12/01 07:23:13;;;;;;;;;41.00;27.50;;;;;;;;5101195;27;61893;-83
2022/12/01 07:25:38;;;;;;;;;32.50;25.75;;;;;;;;5100063;27;62245;-81
2022/12/01 07:28:04;;;;;;;;;37.00;28.00;;;;;;;;5100711;27;61938;-81
2022/12/01 07:30:29;;;;;;;;;35.75;29.50;;;;;;;;5101457;27;61760;-82
2022/12/01 07:32:54;;;;;;;;;25.25;23.00;;;;;;;;5102087;27;62021;-82
2022/12/01 07:35:20;;;;;;;;;40.50;28.50;;;;;;;;5102509;27;62043;-82
2022/12/01 07:37:45;;;;;;;;;41.25;29.00;;;;;;;;5102757;27;63875;-82
2022/12/01 07:40:11;;;;;;;;;37.50;28.75;;;;;;;;5103616;27;61757;-81
2022/12/01 07:42:39;;;;;;;;;39.50;25.50;;;;;;;;5098258;27;61695;-78
2022/12/01 07:45:05;;;;;;;;;36.00;29.75;;;;;;;;5093106;27;61937;-77
2022/12/01 07:47:30;;;;;;;;;35.50;24.50;;;;;;;;5103237;27;62077;-77
2022/12/01 07:49:55;;;;;;;;;33.00;24.75;;;;;;;;5103994;27;62230;-77
2022/12/01 07:52:20;;;;;;;;;49.25;29.75;;;;;;;;5095523;27;61893;-77
2022/12/01 07:54:46;;;;;;;;;42.00;33.25;;;;;;;;5104224;27;61893;-75
2022/12/01 07:57:13;;;;;;;;;38.00;27.50;;;;;;;;5100359;27;63757;-76
2022/12/01 07:59:38;;;;;;;;;36.50;30.25;;;;;;;;5103363;27;62156;-78
2022/12/01 08:02:04;;;;;;;;;40.00;31.00;;;;;;;;5104274;27;62051;-76
2022/12/01 08:04:29;;;;;;;;;41.50;28.00;;;;;;;;5103297;27;61726;-80
2022/12/01 08:06:55;;;;;;;;;39.75;30.75;;;;;;;;5102382;27;63702;-78
2022/12/01 08:09:20;;;;;;;;;43.00;31.25;;;;;;;;5103401;27;61977;-78
2022/12/01 08:11:45;;;;;;;;;49.00;33.75;;;;;;;;5104124;27;62044;-78
2022/12/01 08:14:10;;;;;;;;;35.75;27.50;;;;;;;;5103251;27;61756;-78
2022/12/01 08:16:36;;;;;;;;;38.75;25.25;;;;;;;;5103834;27;61773;-78
2022/12/01 08:19:01;;;;;;;;;21.50;20.25;;;;;;;;5104501;27;61851;-78
2022/12/01 08:21:26;;;;;;;;;38.25;28.00;;;;;;;;5102938;27;61907;-78
2022/12/01 08:23:53;;;;;;;;;42.75;32.50;;;;;;;;5102684;27;61842;-78
2022/12/01 08:26:18;;;;;;;;;37.00;28.00;;;;;;;;5102751;27;63399;-78
2022/12/01 08:28:44;;;;;;;;;45.50;29.00;;;;;;;;5104345;27;61759;-78
2022/12/01 08:31:09;;;;;;;;;33.50;28.00;;;;;;;;5104281;27;62061;-78
2022/12/01 08:33:35;;;;;;;;;27.25;20.75;;;;;;;;5104779;27;61874;-78
2022/12/01 08:36:01;;;;;;;;;30.75;24.00;;;;;;;;5103281;27;62648;-78
2022/12/01 08:38:26;;;;;;;;;39.00;25.75;;;;;;;;5104490;27;61833;-78
2022/12/01 08:40:55;;;;;;;;;29.50;24.75;;;;;;;;5104423;27;61743;-78
2022/12/01 08:43:20;;;;;;;;;40.25;22.25;;;;;;;;5103417;27;61728;-78
2022/12/01 08:45:45;;;;;;;;;25.25;20.25;;;;;;;;5102946;27;61889;-79
2022/12/01 08:48:10;;;;;;;;;29.00;23.00;;;;;;;;5103317;27;61886;-78
2022/12/01 08:50:36;;;;;;;;;37.00;23.25;;;;;;;;5102964;27;61866;-78
2022/12/01 08:53:01;;;;;;;;;38.50;26.00;;;;;;;;5102468;27;61788;-78
2022/12/01 08:55:26;;;;;;;;;23.75;21.00;;;;;;;;5103252;27;61969;-78
2022/12/01 08:57:51;;;;;;;;;31.25;25.00;;;;;;;;5102345;27;62405;-78
2022/12/01 09:00:17;;;;;;;;;31.25;23.50;;;;;;;;5103262;27;61747;-79
2022/12/01 09:02:42;;;;;;;;;27.50;22.25;;;;;;;;5102637;27;61758;-79
2022/12/01 09:05:08;;;;;;;;;36.00;24.00;;;;;;;;5102839;27;62956;-80
2022/12/01 09:07:33;;;;;;;;;25.75;23.75;;;;;;;;5102527;27;61811;-79
2022/12/01 09:09:58;;;;;;;;;29.50;22.75;;;;;;;;5103698;27;62070;-79
2022/12/01 09:12:23;;;;;;;;;29.75;22.50;;;;;;;;5104032;27;61812;-80
2022/12/01 09:14:49;;;;;;;;;22.00;17.00;;;;;;;;5103203;27;61813;-80
2022/12/01 09:17:15;;;;;;;;;33.50;22.25;;;;;;;;5103526;27;61952;-79
2022/12/01 09:19:41;;;;;;;;;37.75;25.75;;;;;;;;5101944;27;61887;-79
2022/12/01 09:22:06;;;;;;;;;23.25;19.25;;;;;;;;5101035;27;61965;-79
2022/12/01 09:24:31;;;;;;;;;33.25;22.00;;;;;;;;5082781;27;61888;-79
2022/12/01 09:26:58;;;;;;;;;30.25;20.75;;;;;;;;5083313;28;61869;-79
2022/12/01 09:29:23;;;;;;;;;30.25;20.00;;;;;;;;5082732;28;61855;-79
2022/12/01 09:31:48;;;;;;;;;29.75;22.75;;;;;;;;5083114;28;62161;-79
2022/12/01 09:34:16;;;;;;;;;31.00;21.75;;;;;;;;5082102;27;61838;-79
2022/12/01 09:36:41;;;;;;;;;25.50;22.00;;;;;;;;5083441;28;62076;-80
2022/12/01 09:39:07;;;;;;;;;36.50;25.00;;;;;;;;5083146;28;61736;-79
2022/12/01 09:41:35;;;;;;;;;35.50;23.00;;;;;;;;5083031;27;61886;-79
2022/12/01 09:44:01;;;;;;;;;23.75;19.25;;;;;;;;5082217;28;62683;-79
2022/12/01 09:46:29;;;;;;;;;35.75;21.25;;;;;;;;5083050;28;61803;-80
2022/12/01 09:48:56;;;;;;;;;30.75;24.50;;;;;;;;5082411;28;61748;-79
2022/12/01 09:51:22;;;;;;;;;27.50;22.75;;;;;;;;5081523;28;61711;-79
2022/12/01 09:53:50;;;;;;;;;35.00;24.50;;;;;;;;5082006;28;62807;-79
2022/12/01 09:56:20;;;;;;;;;23.00;20.25;;;;;;;;5082715;28;61855;-80
2022/12/01 09:58:47;;;;;;;;;30.25;26.50;;;;;;;;5082081;28;61941;-79
2022/12/01 10:01:17;;;;;;;;;31.75;20.50;;;;;;;;5082296;28;62168;-79
2022/12/01 10:03:47;;;;;;;;;28.75;20.50;;;;;;;;5079883;28;64013;-80
2022/12/01 10:06:15;;;;;;;;;33.50;20.00;;;;;;;;5082479;28;61886;-79
2022/12/01 10:08:48;;;;;;;;;25.00;20.00;;;;;;;;5081473;28;62011;-79
2022/12/01 10:11:34;;;;;;;;;25.00;20.25;;;;;;;;5082576;28;61950;-79
2022/12/01 10:14:02;;;;;;;;;23.00;20.00;;;;;;;;5081579;28;62917;-79
2022/12/01 10:16:32;;;;;;;;;25.00;16.50;;;;;;;;5082087;28;62013;-79
2022/12/01 10:19:00;;;;;;;;;22.25;18.75;;;;;;;;5080717;28;61680;-79
2022/12/01 10:21:31;;;;;;;;;30.25;21.25;;;;;;;;5082337;28;61843;-79
2022/12/01 10:24:05;;;;;;;;;25.25;18.50;;;;;;;;5099621;27;62843;-79
2022/12/01 10:26:34;;;;;;;;;31.50;21.25;;;;;;;;5102526;27;61949;-79
2022/12/01 10:29:18;;;;;;;;;22.75;18.00;;;;;;;;5101438;27;61911;-79
2022/12/01 10:31:50;;;;;;;;;25.00;22.50;;;;;;;;5102815;27;61819;-80
2022/12/01 10:34:18;;;;;;;;;25.50;21.50;;;;;;;;5100792;27;63509;-79
2022/12/01 10:36:44;;;;;;;;;23.25;19.25;;;;;;;;5101094;27;61760;-79
2022/12/01 10:39:27;;;;;;;;;36.50;23.75;;;;;;;;5102844;27;61738;-80
2022/12/01 10:41:59;;;;;;;;;24.75;20.00;;;;;;;;5101380;27;61924;-79
2022/12/01 10:44:24;;;;;;;;;22.50;15.00;;;;;;;;5100193;27;63288;-79
2022/12/01 10:46:53;;;;;;;;;32.50;21.00;;;;;;;;5102205;27;61684;-79
2022/12/01 10:49:18;;;;;;;;;29.00;23.50;;;;;;;;5100604;27;61913;-79
2022/12/01 10:51:50;;;;;;;;;30.75;24.75;;;;;;;;5102559;27;61612;-79
2022/12/01 10:54:16;;;;;;;;;32.75;19.75;;;;;;;;5101884;27;61820;-80
2022/12/01 10:56:46;;;;;;;;;26.25;23.00;;;;;;;;5102536;27;61717;-80
2022/12/01 10:59:20;;;;;;;;;21.75;20.00;;;;;;;;5102248;27;62131;-79
2022/12/01 11:01:46;;;;;;;;;28.75;22.50;;;;;;;;5100743;27;61793;-79
2022/12/01 11:04:30;;;;;;;;;25.00;18.50;;;;;;;;5099683;27;61880;-78
2022/12/01 11:06:56;;;;;;;;;31.50;20.50;;;;;;;;5101970;27;61969;-80
2022/12/01 11:09:27;;;;;;;;;26.50;17.75;;;;;;;;5102889;27;61954;-80
2022/12/01 11:11:59;;;;;;;;;25.25;16.50;;;;;;;;5105894;27;61775;-80
2022/12/01 11:14:45;;;;;;;;;16.00;12.75;;;;;;;;5105021;27;61723;-79
2022/12/01 11:17:25;;;;;;;;;22.25;18.25;;;;;;;;5096927;27;61929;-80
2022/12/01 11:19:50;;;;;;;;;20.75;15.00;;;;;;;;5106164;27;61980;-80
2022/12/01 11:22:20;;;;;;;;;17.25;16.50;;;;;;;;5103009;27;62131;-79
2022/12/01 11:24:48;;;;;;;;;26.00;21.75;;;;;;;;5105754;27;63004;-80
2022/12/01 11:27:18;;;;;;;;;26.50;19.25;;;;;;;;5106472;27;61899;-80
2022/12/01 11:29:45;;;;;;;;;28.25;21.25;;;;;;;;5105189;27;61783;-80
2022/12/01 11:32:19;;;;;;;;;23.75;18.00;;;;;;;;5104362;27;61830;-79
2022/12/01 11:34:58;;;;;;;;;23.25;19.25;;;;;;;;5103411;27;63548;-80
2022/12/01 11:37:26;;;;;;;;;22.25;17.50;;;;;;;;5105850;27;62017;-80
2022/12/01 11:39:52;;;;;;;;;28.75;19.75;;;;;;;;5104495;27;61770;-80
2022/12/01 11:42:27;;;;;;;;;24.00;21.75;;;;;;;;5105698;27;62028;-80
2022/12/01 11:44:59;;;;;;;;;24.00;20.00;;;;;;;;5102775;27;65018;-80
2022/12/01 11:47:26;;;;;;;;;24.25;16.75;;;;;;;;5105313;27;61924;-80
2022/12/01 11:49:53;;;;;;;;;34.00;24.25;;;;;;;;5105042;27;61942;-80
2022/12/01 11:52:30;;;;;;;;;38.25;28.25;;;;;;;;5104367;27;62062;-80
2022/12/01 11:55:01;;;;;;;;;34.25;21.75;;;;;;;;5104909;27;61849;-80
2022/12/01 11:57:28;;;;;;;;;32.75;26.25;;;;;;;;5104786;27;61770;-79
2022/12/01 11:59:53;;;;;;;;;56.00;39.75;;;;;;;;5104772;27;61727;-79
2022/12/01 12:02:18;;;;;;;;;27.00;22.75;;;;;;;;5105240;27;61778;-79
2022/12/01 12:04:43;;;;;;;;;24.00;19.50;;;;;;;;5104309;27;62004;-79
2022/12/01 12:07:30;;;;;;;;;28.75;19.50;;;;;;;;5105206;27;62044;-80
2022/12/01 12:10:13;;;;;;;;;32.75;22.50;;;;;;;;5105288;27;61754;-80
2022/12/01 12:12:42;;;;;;;;;29.25;26.25;;;;;;;;5104810;27;62103;-80
2022/12/01 12:15:24;;;;;;;;;26.50;22.00;;;;;;;;5103946;27;61756;-80
2022/12/01 12:18:08;;;;;;;;;26.00;21.75;;;;;;;;5104765;27;61806;-80
2022/12/01 12:20:39;;;;;;;;;29.00;19.50;;;;;;;;5104062;27;61867;-79
2022/12/01 12:23:23;;;;;;;;;30.25;17.50;;;;;;;;5101835;27;61800;-80
2022/12/01 12:25:58;;;;;;;;;40.75;27.50;;;;;;;;5103680;27;62725;-79
2022/12/01 12:28:23;;;;;;;;;25.75;23.25;;;;;;;;5104346;27;61770;-80
2022/12/01 12:30:52;;;;;;;;;33.75;26.50;;;;;;;;5104345;27;61796;-80
2022/12/01 12:33:17;;;;;;;;;27.25;20.00;;;;;;;;5103453;27;62075;-80
2022/12/01 12:35:42;;;;;;;;;22.25;19.25;;;;;;;;5104397;27;62011;-80
2022/12/01 12:38:14;;;;;;;;;31.00;20.50;;;;;;;;5104837;27;61860;-80
2022/12/01 12:40:56;;;;;;;;;21.00;15.25;;;;;;;;5104350;27;61869;-79
2022/12/01 12:43:32;;;;;;;;;30.75;23.75;;;;;;;;5103438;27;62418;-80
2022/12/01 12:46:10;;;;;;;;;27.75;21.00;;;;;;;;5102301;27;62031;-80
2022/12/01 12:48:54;;;;;;;;;26.25;21.75;;;;;;;;5103859;27;62009;-79
2022/12/01 12:51:38;;;;;;;;;28.25;24.75;;;;;;;;5103335;27;61777;-79
2022/12/01 12:54:22;;;;;;;;;27.75;13.25;;;;;;;;5102949;27;61703;-80
2022/12/01 12:56:51;;;;;;;;;26.25;21.25;;;;;;;;5102108;27;63377;-80
2022/12/01 12:59:40;;;;;;;;;38.75;23.75;;;;;;;;5102780;27;61762;-79
2022/12/01 13:02:18;;;;;;;;;16.25;9.50;;;;;;;;5094176;27;62279;-80
2022/12/01 13:04:50;;;;;;;;;31.00;22.00;;;;;;;;5103214;27;62247;-80
2022/12/01 13:07:36;;;;;;;;;30.25;22.25;;;;;;;;5102197;27;63146;-80
2022/12/01 13:10:08;;;;;;;;;32.75;23.50;;;;;;;;5102332;27;62005;-79
2022/12/01 13:12:36;;;;;;;;;28.75;23.50;;;;;;;;5104040;27;61845;-80
2022/12/01 13:15:12;;;;;;;;;18.75;16.00;;;;;;;;5103559;27;62164;-80
2022/12/01 13:17:40;;;;;;;;;21.00;18.75;;;;;;;;5103558;27;63190;-80
2022/12/01 13:20:05;;;;;;;;;35.50;23.50;;;;;;;;5103355;27;61743;-80
2022/12/01 13:22:32;;;;;;;;;24.00;17.75;;;;;;;;5102382;27;61803;-80
2022/12/01 13:24:58;;;;;;;;;35.00;24.00;;;;;;;;5103522;27;61782;-79
2022/12/01 13:27:25;;;;;;;;;27.25;17.50;;;;;;;;5103077;27;61964;-80
2022/12/01 13:29:51;;;;;;;;;23.50;18.50;;;;;;;;5103572;27;61940;-80
2022/12/01 13:32:29;;;;;;;;;26.75;16.00;;;;;;;;5103212;27;61850;-80
2022/12/01 13:34:55;;;;;;;;;15.50;12.00;;;;;;;;5103520;27;61904;-80
2022/12/01 13:37:28;;;;;;;;;21.25;19.00;;;;;;;;5101655;27;62868;-80
2022/12/01 13:39:55;;;;;;;;;24.25;17.75;;;;;;;;5100441;27;62005;-79
2022/12/01 13:42:22;;;;;;;;;26.50;15.50;;;;;;;;5102541;27;61987;-80
2022/12/01 13:44:52;;;;;;;;;23.25;19.75;;;;;;;;5100711;27;62141;-81
2022/12/01 13:47:23;;;;;;;;;24.75;20.50;;;;;;;;5094523;27;63329;-77
2022/12/01 13:49:49;;;;;;;;;22.50;18.00;;;;;;;;5098623;27;61956;-79
2022/12/01 13:52:21;;;;;;;;;32.25;20.00;;;;;;;;5100216;27;62083;-79
2022/12/01 13:55:01;;;;;;;;;27.00;18.50;;;;;;;;5088914;27;62087;-79
2022/12/01 13:57:28;;;;;;;;;28.75;18.75;;;;;;;;5102195;27;62596;-79
2022/12/01 13:59:56;;;;;;;;;21.75;18.00;;;;;;;;5101332;27;62433;-80
2022/12/01 14:02:22;;;;;;;;;26.50;15.25;;;;;;;;5102134;27;61817;-79
2022/12/01 14:04:47;;;;;;;;;25.25;21.75;;;;;;;;5101546;27;62185;-79
2022/12/01 14:07:33;;;;;;;;;28.50;18.75;;;;;;;;5100467;27;63400;-80
2022/12/01 14:10:17;;;;;;;;;22.00;20.50;;;;;;;;5099815;27;61961;-79
2022/12/01 14:12:44;;;;;;;;;18.50;15.25;;;;;;;;5086841;27;62027;-79
2022/12/01 14:15:22;;;;;;;;;18.00;13.25;;;;;;;;5102148;27;61944;-78
2022/12/01 14:17:57;;;;;;;;;19.75;15.50;;;;;;;;5102101;27;61896;-80
2022/12/01 14:20:22;;;;;;;;;17.50;12.50;;;;;;;;5102121;27;61682;-79
2022/12/01 14:23:02;;;;;;;;;18.25;16.00;;;;;;;;5101778;27;61980;-79
2022/12/01 14:25:29;;;;;;;;;31.00;18.50;;;;;;;;5101313;27;62182;-79
2022/12/01 14:28:01;;;;;;;;;20.25;14.75;;;;;;;;5101514;27;61748;-80